Time,TemperatureF,DewpointF,PressureIn,WindDirection,WindDirectionDegrees,WindSpeedMPH,WindSpeedGustMPH,Humidity,HourlyPrecipIn,Conditions,Clouds,dailyrainin,SoftwareType,DateUTC
2017-02-26 00:01:00,30.7,20.0,30.06,WSW,250,3.0,6.0,65,0.00,,,0.00,weatherlink.com 1.10,2017-02-26 05:01:00,
2017-02-26 00:16:00,30.7,21.0,30.06,SW,236,0.0,5.0,66,0.00,,,0.00,weatherlink.com 1.10,2017-02-26 05:16:00,
2017-02-26 00:31:00,30.8,21.0,30.06,SW,221,2.0,6.0,66,0.00,,,0.00,weatherlink.com 1.10,2017-02-26 05:31:00,
2017-02-26 00:46:00,30.7,21.0,30.06,WSW,246,0.0,5.0,66,0.00,,,0.00,weatherlink.com 1.10,2017-02-26 05:46:00,
2017-02-26 01:01:00,30.5,21.0,30.07,West,266,1.0,6.0,67,0.00,,,0.00,weatherlink.com 1.10,2017-02-26 06:01:00,
2017-02-26 01:16:00,30.3,20.0,30.07,SW,236,0.0,3.0,67,0.00,,,0.00,weatherlink.com 1.10,2017-02-26 06:16:00,
2017-02-26 01:32:00,30.1,21.0,30.08,SW,236,0.0,6.0,68,0.00,,,0.00,weatherlink.com 1.10,2017-02-26 06:32:00,
2017-02-26 01:47:00,30.2,20.0,30.08,WSW,257,3.0,4.0,66,0.00,,,0.00,weatherlink.com 1.10,2017-02-26 06:47:00,
2017-02-26 02:02:00,30.0,20.0,30.09,NW,323,0.0,4.0,66,0.00,,,0.00,weatherlink.com 1.10,2017-02-26 07:02:00,
2017-02-26 02:17:00,29.9,19.0,30.09,West,273,0.0,10.0,64,0.00,,,0.00,weatherlink.com 1.10,2017-02-26 07:17:00,
2017-02-26 02:32:00,29.7,19.0,30.09,NW,308,0.0,9.0,65,0.00,,,0.00,weatherlink.com 1.10,2017-02-26 07:32:00,
2017-02-26 02:47:00,29.5,19.0,30.10,West,261,0.0,4.0,66,0.00,,,0.00,weatherlink.com 1.10,2017-02-26 07:47:00,
2017-02-26 03:02:00,29.2,19.0,30.10,SW,219,0.0,3.0,66,0.00,,,0.00,weatherlink.com 1.10,2017-02-26 08:02:00,
2017-02-26 03:17:00,28.9,19.0,30.10,SW,222,0.0,4.0,67,0.00,,,0.00,weatherlink.com 1.10,2017-02-26 08:17:00,
2017-02-26 03:32:00,28.6,19.0,30.10,West,281,0.0,5.0,67,0.00,,,0.00,weatherlink.com 1.10,2017-02-26 08:32:00,
2017-02-26 03:47:00,28.4,19.0,30.11,SSW,202,0.0,3.0,68,0.00,,,0.00,weatherlink.com 1.10,2017-02-26 08:47:00,
2017-02-26 04:02:00,28.3,19.0,30.11,SW,225,0.0,3.0,68,0.00,,,0.00,weatherlink.com 1.10,2017-02-26 09:02:00,
2017-02-26 04:17:00,28.2,19.0,30.12,SSW,207,0.0,5.0,68,0.00,,,0.00,weatherlink.com 1.10,2017-02-26 09:17:00,
2017-02-26 04:32:00,28.1,19.0,30.12,WSW,237,0.0,7.0,68,0.00,,,0.00,weatherlink.com 1.10,2017-02-26 09:32:00,
2017-02-26 04:47:00,27.9,19.0,30.12,South,188,1.0,4.0,69,0.00,,,0.00,weatherlink.com 1.10,2017-02-26 09:47:00,
2017-02-26 05:02:00,27.6,19.0,30.13,SW,221,2.0,3.0,69,0.00,,,0.00,weatherlink.com 1.10,2017-02-26 10:02:00,
2017-02-26 05:17:00,27.3,19.0,30.14,SSW,205,1.0,3.0,70,0.00,,,0.00,weatherlink.com 1.10,2017-02-26 10:17:00,
2017-02-26 05:32:00,27.0,18.0,30.15,North,5,0.0,4.0,70,0.00,,,0.00,weatherlink.com 1.10,2017-02-26 10:32:00,
2017-02-26 05:47:00,26.8,18.0,30.14,SW,233,0.0,1.0,70,0.00,,,0.00,weatherlink.com 1.10,2017-02-26 10:47:00,
2017-02-26 06:02:00,26.5,19.0,30.16,SW,232,1.0,1.0,72,0.00,,,0.00,weatherlink.com 1.10,2017-02-26 11:02:00,
2017-02-26 06:17:00,26.3,19.0,30.16,SW,232,0.0,1.0,73,0.00,,,0.00,weatherlink.com 1.10,2017-02-26 11:17:00,
2017-02-26 06:32:00,26.1,19.0,30.17,SW,232,0.0,3.0,73,0.00,,,0.00,weatherlink.com 1.10,2017-02-26 11:32:00,
2017-02-26 06:47:00,26.0,18.0,30.17,SW,232,0.0,1.0,73,0.00,,,0.00,weatherlink.com 1.10,2017-02-26 11:47:00,
2017-02-26 07:02:00,25.8,18.0,30.18,SW,232,0.0,1.0,73,0.00,,,0.00,weatherlink.com 1.10,2017-02-26 12:02:00,
2017-02-26 07:17:00,25.5,19.0,30.19,North,-9999,0.0,0.0,76,0.00,,,0.00,weatherlink.com 1.10,2017-02-26 12:17:00,
2017-02-26 07:32:00,25.4,19.0,30.19,North,-9999,0.0,0.0,76,0.00,,,0.00,weatherlink.com 1.10,2017-02-26 12:32:00,
2017-02-26 07:47:00,25.8,19.0,30.20,North,-9999,0.0,0.0,76,0.00,,,0.00,weatherlink.com 1.10,2017-02-26 12:47:00,
2017-02-26 08:03:00,26.7,20.0,30.21,North,-9999,0.0,0.0,75,0.00,,,0.00,weatherlink.com 1.10,2017-02-26 13:03:00,
2017-02-26 08:18:00,27.6,19.0,30.21,North,-9999,0.0,0.0,71,0.00,,,0.00,weatherlink.com 1.10,2017-02-26 13:18:00,
2017-02-26 08:33:00,28.7,20.0,30.23,North,-9999,0.0,0.0,71,0.00,,,0.00,weatherlink.com 1.10,2017-02-26 13:33:00,
2017-02-26 08:48:00,29.5,20.0,30.23,North,-9999,0.0,0.0,69,0.00,,,0.00,weatherlink.com 1.10,2017-02-26 13:48:00,
2017-02-26 09:03:00,30.6,21.0,30.23,North,-9999,0.0,0.0,68,0.00,,,0.00,weatherlink.com 1.10,2017-02-26 14:03:00,
2017-02-26 09:18:00,31.7,21.0,30.23,North,-9999,0.0,0.0,66,0.00,,,0.00,weatherlink.com 1.10,2017-02-26 14:18:00,
2017-02-26 09:33:00,32.5,21.0,30.22,North,-9999,0.0,0.0,62,0.00,,,0.00,weatherlink.com 1.10,2017-02-26 14:33:00,
2017-02-26 09:48:00,33.2,21.0,30.23,North,-9999,0.0,0.0,61,0.00,,,0.00,weatherlink.com 1.10,2017-02-26 14:48:00,
2017-02-26 10:03:00,34.0,20.0,30.23,North,-9999,0.0,0.0,58,0.00,,,0.00,weatherlink.com 1.10,2017-02-26 15:03:00,
2017-02-26 10:18:00,34.8,21.0,30.24,North,-9999,0.0,0.0,58,0.00,,,0.00,weatherlink.com 1.10,2017-02-26 15:18:00,
2017-02-26 10:33:00,36.2,21.0,30.23,North,-9999,0.0,0.0,55,0.00,,,0.00,weatherlink.com 1.10,2017-02-26 15:33:00,
2017-02-26 10:48:00,36.6,20.0,30.23,North,-9999,0.0,0.0,52,0.00,,,0.00,weatherlink.com 1.10,2017-02-26 15:48:00,
2017-02-26 11:03:00,37.4,22.0,30.23,North,-9999,0.0,0.0,53,0.00,,,0.00,weatherlink.com 1.10,2017-02-26 16:03:00,
2017-02-26 11:18:00,38.6,21.0,30.23,North,-9999,0.0,0.0,50,0.00,,,0.00,weatherlink.com 1.10,2017-02-26 16:18:00,
2017-02-26 11:33:00,40.1,22.0,30.23,North,-9999,0.0,0.0,49,0.00,,,0.00,weatherlink.com 1.10,2017-02-26 16:33:00,
2017-02-26 11:48:00,40.7,21.0,30.22,North,-9999,0.0,0.0,46,0.00,,,0.00,weatherlink.com 1.10,2017-02-26 16:48:00,
2017-02-26 12:03:00,42.0,22.0,30.22,North,-9999,0.0,0.0,45,0.00,,,0.00,weatherlink.com 1.10,2017-02-26 17:03:00,
2017-02-26 12:18:00,42.6,22.0,30.21,North,-9999,0.0,0.0,44,0.00,,,0.00,weatherlink.com 1.10,2017-02-26 17:18:00,
2017-02-26 12:33:00,44.2,21.0,30.21,North,-9999,0.0,0.0,40,0.00,,,0.00,weatherlink.com 1.10,2017-02-26 17:33:00,
2017-02-26 12:48:00,45.2,23.0,30.20,North,-9999,0.0,0.0,41,0.00,,,0.00,weatherlink.com 1.10,2017-02-26 17:48:00,
2017-02-26 13:03:00,45.8,21.0,30.19,North,-9999,0.0,0.0,38,0.00,,,0.00,weatherlink.com 1.10,2017-02-26 18:03:00,
2017-02-26 13:18:00,46.4,21.0,30.18,North,-9999,0.0,0.0,37,0.00,,,0.00,weatherlink.com 1.10,2017-02-26 18:18:00,
2017-02-26 13:33:00,47.4,21.0,30.18,North,-9999,0.0,0.0,35,0.00,,,0.00,weatherlink.com 1.10,2017-02-26 18:33:00,
2017-02-26 13:48:00,48.1,21.0,30.17,North,-9999,0.0,0.0,35,0.00,,,0.00,weatherlink.com 1.10,2017-02-26 18:48:00,
2017-02-26 14:04:00,49.3,22.0,30.17,North,-9999,0.0,0.0,34,0.00,,,0.00,weatherlink.com 1.10,2017-02-26 19:04:00,
2017-02-26 14:19:00,48.8,21.0,30.17,North,-9999,0.0,0.0,34,0.00,,,0.00,weatherlink.com 1.10,2017-02-26 19:19:00,
2017-02-26 14:34:00,50.0,21.0,30.16,North,-9999,0.0,0.0,32,0.00,,,0.00,weatherlink.com 1.10,2017-02-26 19:34:00,
2017-02-26 14:49:00,50.0,21.0,30.16,North,-9999,0.0,0.0,32,0.00,,,0.00,weatherlink.com 1.10,2017-02-26 19:49:00,
2017-02-26 15:04:00,50.3,20.0,30.15,North,-9999,0.0,0.0,30,0.00,,,0.00,weatherlink.com 1.10,2017-02-26 20:04:00,
2017-02-26 15:19:00,50.2,21.0,30.15,North,-9999,0.0,0.0,32,0.00,,,0.00,weatherlink.com 1.10,2017-02-26 20:19:00,
2017-02-26 15:34:00,50.5,21.0,30.14,North,-9999,0.0,0.0,31,0.00,,,0.00,weatherlink.com 1.10,2017-02-26 20:34:00,
2017-02-26 15:49:00,50.4,20.0,30.15,North,-9999,0.0,0.0,30,0.00,,,0.00,weatherlink.com 1.10,2017-02-26 20:49:00,
2017-02-26 16:04:00,50.0,19.0,30.14,North,-9999,0.0,0.0,29,0.00,,,0.00,weatherlink.com 1.10,2017-02-26 21:04:00,
2017-02-26 16:19:00,49.2,19.0,30.14,North,-9999,0.0,0.0,30,0.00,,,0.00,weatherlink.com 1.10,2017-02-26 21:19:00,
2017-02-26 16:34:00,49.2,19.0,30.14,North,-9999,0.0,0.0,30,0.00,,,0.00,weatherlink.com 1.10,2017-02-26 21:34:00,
2017-02-26 16:49:00,48.5,19.0,30.14,North,-9999,0.0,0.0,31,0.00,,,0.00,weatherlink.com 1.10,2017-02-26 21:49:00,
2017-02-26 17:04:00,47.8,18.0,30.15,North,-9999,0.0,0.0,31,0.00,,,0.00,weatherlink.com 1.10,2017-02-26 22:04:00,
2017-02-26 17:19:00,47.4,19.0,30.15,North,-9999,0.0,0.0,32,0.00,,,0.00,weatherlink.com 1.10,2017-02-26 22:19:00,
2017-02-26 17:34:00,47.2,19.0,30.15,North,-9999,0.0,0.0,33,0.00,,,0.00,weatherlink.com 1.10,2017-02-26 22:34:00,
2017-02-26 17:49:00,47.3,19.0,30.15,North,-9999,0.0,0.0,33,0.00,,,0.00,weatherlink.com 1.10,2017-02-26 22:49:00,
2017-02-26 18:04:00,46.9,20.0,30.16,North,-9999,0.0,0.0,34,0.00,,,0.00,weatherlink.com 1.10,2017-02-26 23:04:00,
2017-02-26 18:19:00,46.6,19.0,30.16,North,-9999,0.0,0.0,34,0.00,,,0.00,weatherlink.com 1.10,2017-02-26 23:19:00,
2017-02-26 18:34:00,46.3,20.0,30.16,North,-9999,0.0,0.0,35,0.00,,,0.00,weatherlink.com 1.10,2017-02-26 23:34:00,
2017-02-26 18:49:00,46.0,20.0,30.16,North,-9999,0.0,0.0,35,0.00,,,0.00,weatherlink.com 1.10,2017-02-26 23:49:00,